Time;durP1;ratioP1;P1;durP2;ratioP2;P2;SDS_P1;SDS_P2;PMS_P1;PMS_P2;Temp;Humidity;BMP_temperature;BMP_pressure;BME280_temperature;BME280_humidity;BME280_pressure;Samples;Min_cycle;Max_cycle;Signal;HPM_P1;HPM_P2
2023/05/06 00:01:44;;;;;;;;;;;;;;;25.74;24.58;98381.13;4992668;28;19952;-80
2023/05/06 00:04:10;;;;;;;;;;;;;;;26.03;23.55;98385.59;4994826;28;20005;-80
2023/05/06 00:06:36;;;;;;;;;;;;;;;25.18;25.58;98389.56;4988482;28;19941;-81
2023/05/06 00:09:03;;;;;;;;;;;;;;;25.13;24.85;98390.09;4993235;28;20376;-81
2023/05/06 00:11:29;;;;;;;;;;;;;;;25.02;25.67;98397.94;4991269;28;20278;-81
2023/05/06 00:13:55;;;;;;;;;;;;;;;25.12;25.54;98402.53;4988186;28;20014;-81
2023/05/06 00:16:21;;;;;;;;;;;;;;;25.23;25.36;98403.09;4981518;28;19973;-81
2023/05/06 00:18:47;;;;;;;;;;;;;;;25.23;24.77;98400.28;4993252;28;19972;-81
2023/05/06 00:21:13;;;;;;;;;;;;;;;25.28;25.41;98399.78;4996901;28;20317;-81
2023/05/06 00:23:39;;;;;;;;;;;;;;;25.31;24.96;98392.50;4990919;28;19922;-81
2023/05/06 00:26:05;;;;;;;;;;;;;;;24.99;24.86;98386.78;4978422;28;19926;-81
2023/05/06 00:28:31;;;;;;;;;;;;;;;24.77;25.21;98382.81;4989754;28;19922;-81
2023/05/06 00:30:58;;;;;;;;;;;;;;;24.74;25.38;98390.03;4991312;28;19922;-81
2023/05/06 00:33:25;;;;;;;;;;;;;;;24.62;26.09;98387.91;4996714;28;19918;-81
2023/05/06 00:35:51;;;;;;;;;;;;;;;24.84;25.74;98385.47;5003827;28;19926;-81
2023/05/06 00:38:18;;;;;;;;;;;;;;;24.83;25.30;98376.28;4993408;28;20451;-81
2023/05/06 00:40:44;;;;;;;;;;;;;;;24.76;25.54;98373.63;4993690;28;19918;-81
2023/05/06 00:43:10;;;;;;;;;;;;;;;24.93;25.82;98375.25;4991231;28;19998;-81
2023/05/06 00:45:37;;;;;;;;;;;;;;;25.16;24.83;98363.91;4995628;28;20397;-81
2023/05/06 00:48:03;;;;;;;;;;;;;;;24.94;24.84;98368.41;4987201;28;20410;-81
2023/05/06 00:50:32;;;;;;;;;;;;;;;24.63;25.80;98364.19;5001134;28;19945;-81
2023/05/06 00:52:58;;;;;;;;;;;;;;;24.82;25.71;98357.84;4996494;28;19957;-81
2023/05/06 00:55:25;;;;;;;;;;;;;;;24.82;25.52;98360.63;4996981;28;20293;-81
2023/05/06 00:57:51;;;;;;;;;;;;;;;24.74;25.47;98354.34;4994045;28;19925;-81
2023/05/06 01:00:18;;;;;;;;;;;;;;;24.62;25.62;98357.78;5008411;28;19953;-81
2023/05/06 01:02:44;;;;;;;;;;;;;;;24.82;25.53;98357.03;4994574;28;20083;-81
2023/05/06 01:05:10;;;;;;;;;;;;;;;24.87;25.78;98360.13;4992617;28;19922;-81
2023/05/06 01:07:36;;;;;;;;;;;;;;;24.92;25.15;98358.84;4996103;28;19928;-81
2023/05/06 01:10:02;;;;;;;;;;;;;;;25.01;25.27;98362.66;4995036;28;20004;-81
2023/05/06 01:12:36;;;;;;;;;;;;;;;24.91;25.81;98360.84;4996127;28;19929;-81
2023/05/06 01:15:08;;;;;;;;;;;;;;;24.93;25.60;98355.59;4998237;28;19922;-81
2023/05/06 01:17:41;;;;;;;;;;;;;;;25.01;25.36;98357.03;4988657;28;20551;-80
2023/05/06 01:20:10;;;;;;;;;;;;;;;24.79;25.38;98357.88;4990138;28;20013;-80
2023/05/06 01:22:36;;;;;;;;;;;;;;;24.31;26.21;98352.78;4991640;28;19972;-81
2023/05/06 01:25:02;;;;;;;;;;;;;;;24.15;26.76;98355.50;4995426;28;19962;-81
2023/05/06 01:27:29;;;;;;;;;;;;;;;24.48;26.06;98360.09;4989554;28;20060;-81
2023/05/06 01:29:55;;;;;;;;;;;;;;;24.41;26.47;98363.81;4990830;28;19930;-81
2023/05/06 01:32:39;;;;;;;;;;;;;;;24.22;27.69;98360.97;4991738;28;19944;-81
2023/05/06 01:35:17;;;;;;;;;;;;;;;24.63;26.38;98361.38;4990631;28;19929;-81
2023/05/06 01:37:46;;;;;;;;;;;;;;;24.78;25.86;98364.75;4994169;28;19936;-81
2023/05/06 01:40:13;;;;;;;;;;;;;;;24.56;26.13;98364.34;4990368;28;19929;-81
2023/05/06 01:42:40;;;;;;;;;;;;;;;24.54;26.66;98363.97;4988188;28;20409;-81
2023/05/06 01:45:07;;;;;;;;;;;;;;;24.93;25.99;98360.41;4992375;28;19980;-81
2023/05/06 01:47:34;;;;;;;;;;;;;;;24.92;26.03;98354.03;4991958;28;19922;-80
2023/05/06 01:50:00;;;;;;;;;;;;;;;24.96;25.59;98354.72;4992195;28;19921;-81
2023/05/06 01:52:26;;;;;;;;;;;;;;;25.14;25.93;98354.34;4992301;28;19926;-81
2023/05/06 01:54:52;;;;;;;;;;;;;;;24.97;25.68;98359.09;4990668;28;19976;-81
2023/05/06 01:57:18;;;;;;;;;;;;;;;24.85;25.88;98353.38;4992957;28;19930;-81
2023/05/06 01:59:44;;;;;;;;;;;;;;;25.03;25.70;98351.78;4988894;28;19926;-81
2023/05/06 02:02:10;;;;;;;;;;;;;;;24.88;25.25;98350.47;4993545;28;19929;-81
2023/05/06 02:04:36;;;;;;;;;;;;;;;24.38;26.39;98349.84;4992099;28;19930;-81
2023/05/06 02:07:02;;;;;;;;;;;;;;;24.37;25.99;98351.88;4993473;28;19922;-81
2023/05/06 02:09:28;;;;;;;;;;;;;;;24.56;26.20;98353.91;4991874;28;19962;-81
2023/05/06 02:11:54;;;;;;;;;;;;;;;24.56;25.54;98351.09;4990918;28;19964;-80
2023/05/06 02:14:21;;;;;;;;;;;;;;;24.57;25.89;98349.88;4980652;28;19922;-80
2023/05/06 02:16:47;;;;;;;;;;;;;;;24.46;25.72;98352.09;4985951;28;19933;-81
2023/05/06 02:19:13;;;;;;;;;;;;;;;24.14;26.00;98351.09;4987082;28;19922;-81
2023/05/06 02:21:39;;;;;;;;;;;;;;;23.88;27.01;98353.50;4995307;28;19925;-81
2023/05/06 02:24:05;;;;;;;;;;;;;;;24.23;25.87;98354.94;4994540;28;19968;-81
2023/05/06 02:26:31;;;;;;;;;;;;;;;25.56;24.12;98347.78;4999021;28;19944;-82
2023/05/06 02:28:57;;;;;;;;;;;;;;;25.41;24.20;98341.66;4982482;28;20416;-81
2023/05/06 02:31:23;;;;;;;;;;;;;;;25.69;23.53;98345.88;4988082;28;20008;-81
2023/05/06 02:33:49;;;;;;;;;;;;;;;26.02;23.13;98329.78;4994010;28;20013;-81
2023/05/06 02:36:15;;;;;;;;;;;;;;;25.94;23.15;98334.00;4993520;28;19926;-81
2023/05/06 02:38:41;;;;;;;;;;;;;;;25.86;23.29;98333.38;4989141;28;19929;-81
2023/05/06 02:41:08;;;;;;;;;;;;;;;26.07;23.03;98327.19;4987064;28;19922;-81
2023/05/06 02:43:34;;;;;;;;;;;;;;;26.18;22.96;98326.97;4985542;28;19968;-81
2023/05/06 02:46:00;;;;;;;;;;;;;;;26.32;22.84;98325.78;4997373;28;20350;-81
2023/05/06 02:48:26;;;;;;;;;;;;;;;26.46;22.39;98331.03;4996523;28;19956;-81
2023/05/06 02:50:52;;;;;;;;;;;;;;;26.04;23.04;98327.31;4992344;28;19922;-81
2023/05/06 02:53:18;;;;;;;;;;;;;;;25.33;23.92;98325.41;4991690;28;19929;-81
2023/05/06 02:55:44;;;;;;;;;;;;;;;25.48;24.02;98323.09;4984663;28;19918;-81
2023/05/06 02:58:10;;;;;;;;;;;;;;;25.75;23.85;98318.00;4993431;28;19964;-81
2023/05/06 03:00:36;;;;;;;;;;;;;;;25.85;23.46;98319.75;4993888;28;19984;-81
2023/05/06 03:03:02;;;;;;;;;;;;;;;25.37;24.03;98318.47;4993237;28;20389;-81
2023/05/06 03:05:28;;;;;;;;;;;;;;;25.35;24.20;98323.75;4985929;28;20404;-81
2023/05/06 03:07:55;;;;;;;;;;;;;;;25.56;24.57;98316.06;4994929;28;19922;-80
2023/05/06 03:10:21;;;;;;;;;;;;;;;25.85;23.65;98322.56;4992609;28;19926;-81
2023/05/06 03:12:47;;;;;;;;;;;;;;;25.55;24.06;98320.91;4983854;28;20060;-81
2023/05/06 03:15:13;;;;;;;;;;;;;;;25.44;24.11;98320.34;4985562;28;19922;-81
2023/05/06 03:17:39;;;;;;;;;;;;;;;25.47;24.14;98321.50;4993959;28;19965;-81
2023/05/06 03:20:07;;;;;;;;;;;;;;;25.40;24.40;98325.25;4993512;28;20435;-81
2023/05/06 03:22:33;;;;;;;;;;;;;;;24.98;24.84;98321.38;4977111;28;19922;-81
2023/05/06 03:24:59;;;;;;;;;;;;;;;25.09;24.83;98312.69;4992559;28;19922;-81
2023/05/06 03:27:25;;;;;;;;;;;;;;;25.34;24.46;98316.53;4991811;28;19928;-81
2023/05/06 03:29:51;;;;;;;;;;;;;;;25.62;24.11;98320.72;4969617;28;19930;-81
2023/05/06 03:32:17;;;;;;;;;;;;;;;25.64;24.17;98309.84;4958521;28;20397;-81
2023/05/06 03:34:43;;;;;;;;;;;;;;;25.35;24.70;98303.25;4980282;28;19922;-81
2023/05/06 03:37:09;;;;;;;;;;;;;;;25.58;24.32;98302.38;4978811;28;19922;-81
2023/05/06 03:39:35;;;;;;;;;;;;;;;25.75;23.85;98303.94;4955560;28;19925;-81
2023/05/06 03:42:01;;;;;;;;;;;;;;;25.55;24.19;98314.47;4971899;28;19930;-81
2023/05/06 03:44:27;;;;;;;;;;;;;;;25.52;24.97;98315.34;4978704;28;19929;-81
2023/05/06 03:46:53;;;;;;;;;;;;;;;25.93;23.57;98316.31;4973254;28;19918;-81
2023/05/06 03:49:19;;;;;;;;;;;;;;;26.00;23.97;98318.94;4988376;28;20309;-81
2023/05/06 03:51:45;;;;;;;;;;;;;;;25.97;23.70;98317.03;4986057;28;19965;-81
2023/05/06 03:54:11;;;;;;;;;;;;;;;25.80;23.92;98328.72;4968183;28;19930;-81
2023/05/06 03:56:37;;;;;;;;;;;;;;;26.05;23.70;98323.25;4973548;28;20437;-81
2023/05/06 03:59:03;;;;;;;;;;;;;;;26.48;23.45;98325.75;4971606;28;19927;-81
2023/05/06 04:01:29;;;;;;;;;;;;;;;26.73;22.78;98328.66;4972378;28;19950;-81
2023/05/06 04:03:55;;;;;;;;;;;;;;;26.53;23.14;98326.00;4975880;28;20427;-81
2023/05/06 04:06:21;;;;;;;;;;;;;;;26.50;23.72;98329.69;4969120;28;19930;-81
2023/05/06 04:08:47;;;;;;;;;;;;;;;26.69;23.63;98333.59;4979944;28;20373;-81
2023/05/06 04:11:13;;;;;;;;;;;;;;;26.85;23.98;98332.75;4977767;28;19968;-81
2023/05/06 04:13:39;;;;;;;;;;;;;;;27.15;22.97;98320.97;4969582;28;19922;-81
2023/05/06 04:16:05;;;;;;;;;;;;;;;26.76;24.00;98324.97;4987906;28;19929;-81
2023/05/06 04:18:33;;;;;;;;;;;;;;;26.52;23.90;98324.41;4986847;28;19945;-81
2023/05/06 04:20:59;;;;;;;;;;;;;;;26.33;24.77;98330.16;4993849;28;19918;-81
2023/05/06 04:23:25;;;;;;;;;;;;;;;26.21;24.74;98331.69;4981854;28;19976;-81
2023/05/06 04:25:51;;;;;;;;;;;;;;;26.34;24.76;98335.38;4977478;28;19926;-80
2023/05/06 04:28:17;;;;;;;;;;;;;;;26.57;24.17;98334.34;4974564;28;19944;-81
2023/05/06 04:30:44;;;;;;;;;;;;;;;26.65;24.34;98342.13;4992714;28;19926;-81
2023/05/06 04:33:11;;;;;;;;;;;;;;;25.79;27.51;98336.34;4989015;28;20015;-81
2023/05/06 04:35:37;;;;;;;;;;;;;;;25.98;26.39;98340.31;4990308;28;19944;-81
2023/05/06 04:38:03;;;;;;;;;;;;;;;25.93;26.48;98338.81;5008785;28;19949;-80
2023/05/06 04:40:29;;;;;;;;;;;;;;;25.79;27.45;98349.66;5002172;28;20385;-80
2023/05/06 04:42:55;;;;;;;;;;;;;;;25.89;26.88;98340.13;4997817;28;19922;-80
2023/05/06 04:45:23;;;;;;;;;;;;;;;25.69;28.06;98347.88;5002497;28;19930;-81
2023/05/06 04:47:49;;;;;;;;;;;;;;;26.02;27.41;98338.97;4981837;28;20297;-81
2023/05/06 04:50:15;;;;;;;;;;;;;;;26.46;26.66;98351.53;5004880;28;19995;-81
2023/05/06 04:52:41;;;;;;;;;;;;;;;26.62;26.00;98339.44;4996674;28;19925;-81
2023/05/06 04:55:07;;;;;;;;;;;;;;;26.03;26.87;98336.97;5003022;28;20336;-81
2023/05/06 04:57:33;;;;;;;;;;;;;;;25.71;27.53;98337.78;4995559;28;19952;-81
2023/05/06 04:59:59;;;;;;;;;;;;;;;25.68;29.33;98335.03;4996922;28;20385;-82
2023/05/06 05:02:25;;;;;;;;;;;;;;;26.07;28.03;98332.81;4994300;28;19999;-81
2023/05/06 05:04:51;;;;;;;;;;;;;;;26.43;28.18;98343.97;4994126;28;19921;-81
2023/05/06 05:07:17;;;;;;;;;;;;;;;26.54;26.90;98335.22;4988788;28;20379;-81
2023/05/06 05:09:44;;;;;;;;;;;;;;;26.96;25.61;98333.22;4989154;28;20001;-81
2023/05/06 05:12:10;;;;;;;;;;;;;;;26.17;27.70;98328.19;4990157;28;19918;-81
2023/05/06 05:14:36;;;;;;;;;;;;;;;26.37;27.51;98323.19;4999483;28;19941;-82
2023/05/06 05:17:02;;;;;;;;;;;;;;;26.35;27.01;98325.69;4988102;28;19922;-81
2023/05/06 05:19:28;;;;;;;;;;;;;;;26.67;26.76;98330.44;4993601;28;19921;-82
2023/05/06 05:21:54;;;;;;;;;;;;;;;26.72;29.78;98332.72;4988845;28;19929;-82
2023/05/06 05:24:20;;;;;;;;;;;;;;;27.22;26.54;98330.03;4998098;28;19945;-82
2023/05/06 05:26:46;;;;;;;;;;;;;;;27.03;28.39;98335.84;4998068;28;19917;-82
2023/05/06 05:29:12;;;;;;;;;;;;;;;27.31;27.67;98338.59;4992539;28;19932;-82
2023/05/06 05:31:38;;;;;;;;;;;;;;;27.36;27.24;98328.78;4977913;28;19937;-82
2023/05/06 05:34:05;;;;;;;;;;;;;;;27.59;27.66;98320.00;4986452;28;19950;-82
2023/05/06 05:36:31;;;;;;;;;;;;;;;27.36;26.34;98320.31;4991726;28;19930;-81
2023/05/06 05:38:57;;;;;;;;;;;;;;;27.07;28.81;98319.63;4991315;28;20370;-82
2023/05/06 05:41:25;;;;;;;;;;;;;;;27.31;28.28;98318.84;4985634;28;19928;-82
2023/05/06 05:43:51;;;;;;;;;;;;;;;27.76;26.60;98310.19;4985515;28;19937;-82
2023/05/06 05:46:17;;;;;;;;;;;;;;;27.39;26.96;98314.63;4988336;28;19921;-83
2023/05/06 05:48:43;;;;;;;;;;;;;;;27.60;27.76;98323.63;4990806;28;19922;-83
2023/05/06 05:51:09;;;;;;;;;;;;;;;27.86;27.18;98314.69;4984322;28;20289;-83
2023/05/06 05:53:35;;;;;;;;;;;;;;;27.53;26.62;98318.22;4992663;28;19926;-82
2023/05/06 05:56:01;;;;;;;;;;;;;;;27.03;27.87;98311.28;4992198;28;19929;-83
2023/05/06 05:58:27;;;;;;;;;;;;;;;27.31;28.58;98318.84;4978265;28;19924;-84
2023/05/06 06:00:53;;;;;;;;;;;;;;;27.72;28.47;98303.88;4996533;28;19934;-83
2023/05/06 06:03:19;;;;;;;;;;;;;;;27.91;27.57;98304.84;4995433;28;19926;-85
2023/05/06 06:05:48;;;;;;;;;;;;;;;27.64;27.22;98302.53;5003360;28;20013;-83
2023/05/06 06:08:16;;;;;;;;;;;;;;;27.08;27.57;98305.09;4992230;28;19949;-83
2023/05/06 06:10:42;;;;;;;;;;;;;;;26.48;29.05;98297.59;4989229;28;19922;-84
2023/05/06 06:13:08;;;;;;;;;;;;;;;27.14;28.91;98297.63;4985065;28;19945;-83
2023/05/06 06:15:34;;;;;;;;;;;;;;;27.31;28.68;98295.50;4988240;28;19933;-83
2023/05/06 06:18:00;;;;;;;;;;;;;;;27.59;28.77;98283.34;4993358;28;19925;-84
2023/05/06 06:20:27;;;;;;;;;;;;;;;27.72;28.85;98294.63;4976822;28;19930;-85
2023/05/06 06:22:53;;;;;;;;;;;;;;;28.24;27.75;98286.34;4991522;28;19931;-85
2023/05/06 06:25:20;;;;;;;;;;;;;;;29.10;26.59;98287.63;4993522;28;19926;-85
2023/05/06 06:27:46;;;;;;;;;;;;;;;29.27;27.00;98291.81;4992704;28;20025;-84
2023/05/06 06:30:12;;;;;;;;;;;;;;;29.24;26.16;98290.69;4990826;28;20017;-84
2023/05/06 06:32:46;;;;;;;;;;;;;;;29.25;26.42;98291.50;4991580;28;19921;-83
2023/05/06 06:35:12;;;;;;;;;;;;;;;28.77;26.10;98284.47;4997159;28;20037;-83
2023/05/06 06:37:38;;;;;;;;;;;;;;;28.49;29.76;98282.66;4995373;28;20290;-83
2023/05/06 06:40:05;;;;;;;;;;;;;;;27.92;27.28;98283.84;4994468;28;19921;-84
2023/05/06 06:42:31;;;;;;;;;;;;;;;28.61;28.01;98279.78;4994576;28;20368;-85
2023/05/06 06:44:57;;;;;;;;;;;;;;;28.59;27.46;98281.50;4991440;28;20408;-84
2023/05/06 06:47:23;;;;;;;;;;;;;;;29.08;27.08;98276.78;4985359;28;19929;-83
2023/05/06 06:49:50;;;;;;;;;;;;;;;29.40;28.02;98272.72;4991690;28;19925;-84
2023/05/06 06:52:16;;;;;;;;;;;;;;;29.55;27.53;98275.72;4984999;28;19926;-83
2023/05/06 06:54:42;;;;;;;;;;;;;;;29.54;26.46;98271.34;4990516;28;19929;-83
2023/05/06 06:57:08;;;;;;;;;;;;;;;29.42;25.90;98273.03;4990009;28;19922;-83
2023/05/06 06:59:34;;;;;;;;;;;;;;;29.46;25.17;98278.53;4992285;28;19933;-84
2023/05/06 07:02:00;;;;;;;;;;;;;;;29.58;26.79;98267.09;4980560;28;20271;-83
2023/05/06 07:04:26;;;;;;;;;;;;;;;29.74;25.69;98271.69;4987039;28;19953;-83
2023/05/06 07:06:52;;;;;;;;;;;;;;;29.31;27.27;98255.72;4987491;28;20059;-84
2023/05/06 07:09:18;;;;;;;;;;;;;;;29.36;26.45;98255.88;4994727;28;19930;-84
2023/05/06 07:11:44;;;;;;;;;;;;;;;29.51;26.56;98258.91;4993013;28;19997;-83
2023/05/06 07:14:11;;;;;;;;;;;;;;;29.80;26.97;98255.72;4994178;28;19922;-84
2023/05/06 07:16:37;;;;;;;;;;;;;;;30.19;26.01;98251.19;4988871;28;19978;-84
2023/05/06 07:19:03;;;;;;;;;;;;;;;30.06;24.51;98251.31;4974360;28;19930;-83
2023/05/06 07:21:32;;;;;;;;;;;;;;;29.69;25.52;98256.13;4984462;28;19976;-84
2023/05/06 07:23:58;;;;;;;;;;;;;;;29.74;27.38;98252.69;4972069;28;20021;-84
2023/05/06 07:26:25;;;;;;;;;;;;;;;28.88;30.55;98250.13;4983779;28;19929;-84
2023/05/06 07:28:51;;;;;;;;;;;;;;;28.39;27.94;98239.44;4983860;28;19984;-85
2023/05/06 07:31:19;;;;;;;;;;;;;;;28.44;29.48;98249.34;4988522;28;19932;-84
2023/05/06 07:33:46;;;;;;;;;;;;;;;29.01;27.45;98245.94;5003747;28;19926;-84
2023/05/06 07:36:12;;;;;;;;;;;;;;;27.74;30.79;98247.78;4988173;28;19926;-84
2023/05/06 07:38:38;;;;;;;;;;;;;;;28.93;28.38;98238.22;5004656;28;19975;-85
2023/05/06 07:41:05;;;;;;;;;;;;;;;27.42;33.97;98243.19;4975904;28;20301;-84
2023/05/06 07:43:31;;;;;;;;;;;;;;;26.86;33.20;98250.63;4997398;28;19922;-84
2023/05/06 07:46:01;;;;;;;;;;;;;;;25.73;37.24;98244.53;4978840;28;19937;-84
2023/05/06 07:48:28;;;;;;;;;;;;;;;26.04;31.21;98238.03;4989816;28;19922;-84
2023/05/06 07:50:54;;;;;;;;;;;;;;;28.47;29.88;98229.44;4988641;28;19922;-84
2023/05/06 07:53:20;;;;;;;;;;;;;;;27.76;31.23;98231.19;4986662;28;19929;-84
2023/05/06 07:55:46;;;;;;;;;;;;;;;28.31;30.18;98226.81;4994924;28;19926;-84
2023/05/06 07:58:12;;;;;;;;;;;;;;;28.79;29.52;98221.81;4993120;28;20394;-84
2023/05/06 08:00:38;;;;;;;;;;;;;;;29.59;28.57;98225.44;4993591;28;19926;-84
2023/05/06 08:03:04;;;;;;;;;;;;;;;28.94;29.84;98217.94;4997207;28;20330;-86
2023/05/06 08:05:30;;;;;;;;;;;;;;;27.93;33.25;98217.69;4990160;28;20498;-85
2023/05/06 08:07:57;;;;;;;;;;;;;;;25.89;36.28;98216.34;4988103;28;19944;-85
2023/05/06 08:10:23;;;;;;;;;;;;;;;26.45;37.34;98216.81;4989304;28;19936;-86
2023/05/06 08:12:49;;;;;;;;;;;;;;;26.14;36.61;98218.53;4992362;28;19922;-84
2023/05/06 08:15:15;;;;;;;;;;;;;;;26.56;33.93;98212.44;4992309;28;20292;-83
2023/05/06 08:17:41;;;;;;;;;;;;;;;25.85;34.27;98215.69;5006371;28;19933;-87
2023/05/06 08:20:07;;;;;;;;;;;;;;;25.51;35.00;98215.38;4992644;28;19926;-85
2023/05/06 08:22:33;;;;;;;;;;;;;;;25.67;36.29;98212.56;4996198;28;20004;-85
2023/05/06 08:25:00;;;;;;;;;;;;;;;25.61;37.93;98200.25;4988822;28;20289;-83
2023/05/06 08:27:26;;;;;;;;;;;;;;;26.97;30.75;98193.91;4990381;28;19976;-85
2023/05/06 08:29:52;;;;;;;;;;;;;;;26.69;33.10;98192.75;4987933;28;20352;-84
2023/05/06 08:32:18;;;;;;;;;;;;;;;26.09;36.91;98194.50;4988728;28;20278;-85
2023/05/06 08:34:44;;;;;;;;;;;;;;;27.75;29.93;98190.09;4994286;28;19928;-85
2023/05/06 08:37:10;;;;;;;;;;;;;;;26.64;37.42;98191.28;4994753;28;19928;-83
2023/05/06 08:39:36;;;;;;;;;;;;;;;26.30;37.50;98184.69;4991146;28;19926;-84
2023/05/06 08:42:02;;;;;;;;;;;;;;;27.27;32.12;98177.22;4988824;28;20487;-85
2023/05/06 08:44:28;;;;;;;;;;;;;;;29.61;28.97;98178.44;4991588;28;19930;-84
2023/05/06 08:46:54;;;;;;;;;;;;;;;30.12;31.40;98187.16;4990975;28;19922;-84
2023/05/06 08:49:21;;;;;;;;;;;;;;;28.82;34.95;98175.66;5006632;28;19979;-85
2023/05/06 08:51:48;;;;;;;;;;;;;;;27.31;36.61;98174.25;5001472;28;20350;-84
2023/05/06 08:54:14;;;;;;;;;;;;;;;27.26;34.30;98183.28;4992922;28;20020;-84
2023/05/06 08:56:44;;;;;;;;;;;;;;;28.19;30.22;98185.31;4995076;28;20393;-84
2023/05/06 08:59:10;;;;;;;;;;;;;;;28.85;30.94;98184.00;4991173;28;19945;-84
2023/05/06 09:01:36;;;;;;;;;;;;;;;29.04;29.75;98182.03;4988850;28;19976;-83
2023/05/06 09:04:02;;;;;;;;;;;;;;;29.33;29.64;98171.97;4988086;28;19960;-84
2023/05/06 09:06:28;;;;;;;;;;;;;;;28.69;33.76;98176.56;4992624;28;19921;-84
2023/05/06 09:08:54;;;;;;;;;;;;;;;28.65;29.89;98161.78;4987550;28;19948;-84
2023/05/06 09:11:22;;;;;;;;;;;;;;;28.15;36.08;98172.56;4968342;28;19997;-84
2023/05/06 09:13:48;;;;;;;;;;;;;;;27.98;34.67;98157.84;4989935;28;19922;-84
2023/05/06 09:16:28;;;;;;;;;;;;;;;27.95;32.30;98151.06;4989895;28;19929;-84
2023/05/06 09:18:54;;;;;;;;;;;;;;;27.99;35.50;98151.75;4989109;28;20451;-84
2023/05/06 09:21:20;;;;;;;;;;;;;;;29.33;33.10;98148.53;4988290;28;20465;-84
2023/05/06 09:23:46;;;;;;;;;;;;;;;27.75;31.05;98144.94;4989642;28;19925;-84
2023/05/06 09:26:12;;;;;;;;;;;;;;;26.73;36.87;98137.88;4989758;28;20007;-84
2023/05/06 09:28:43;;;;;;;;;;;;;;;27.88;32.37;98125.94;4991309;28;19945;-83
2023/05/06 09:31:12;;;;;;;;;;;;;;;28.29;34.48;98132.50;4990679;28;19933;-85
2023/05/06 09:33:40;;;;;;;;;;;;;;;28.63;30.49;98121.91;4997100;28;19924;-85
2023/05/06 09:36:06;;;;;;;;;;;;;;;28.54;34.50;98113.34;4999613;28;20340;-87
2023/05/06 09:38:32;;;;;;;;;;;;;;;28.32;32.45;98103.34;5004393;28;19957;-86
2023/05/06 09:40:58;;;;;;;;;;;;;;;29.07;32.63;98102.72;4978031;28;19964;-87
2023/05/06 09:43:24;;;;;;;;;;;;;;;29.11;31.80;98094.09;4998979;28;20356;-86
2023/05/06 09:45:50;;;;;;;;;;;;;;;28.32;33.62;98086.41;4992666;28;20352;-86
2023/05/06 09:48:16;;;;;;;;;;;;;;;29.27;29.47;98094.63;4995206;28;19922;-87
2023/05/06 09:50:43;;;;;;;;;;;;;;;30.06;28.13;98085.03;4997491;28;19929;-87
2023/05/06 09:53:10;;;;;;;;;;;;;;;30.14;27.96;98085.50;4988425;28;19976;-88
2023/05/06 09:55:37;;;;;;;;;;;;;;;29.58;31.84;98076.72;5001079;28;19925;-85
2023/05/06 09:58:04;;;;;;;;;;;;;;;29.74;29.61;98082.06;4997252;28;22001;-86
2023/05/06 10:00:30;;;;;;;;;;;;;;;30.65;28.56;98080.63;4971276;28;19961;-88
2023/05/06 10:02:57;;;;;;;;;;;;;;;29.84;31.34;98064.63;4997866;28;20001;-87
2023/05/06 10:05:25;;;;;;;;;;;;;;;30.27;27.92;98066.25;5002484;28;20328;-86
2023/05/06 10:07:52;;;;;;;;;;;;;;;29.77;32.02;98062.13;4991784;28;19977;-85
2023/05/06 10:10:18;;;;;;;;;;;;;;;30.58;28.72;98049.81;4992699;28;20397;-87
2023/05/06 10:12:44;;;;;;;;;;;;;;;31.28;28.74;98047.53;4998972;28;19918;-86
2023/05/06 10:15:10;;;;;;;;;;;;;;;31.48;27.34;98044.88;4992048;28;19925;-86
2023/05/06 10:17:38;;;;;;;;;;;;;;;30.87;29.61;98031.38;4998241;28;19929;-85
2023/05/06 10:20:06;;;;;;;;;;;;;;;30.04;31.10;98038.63;4993371;28;19922;-86
2023/05/06 10:22:51;;;;;;;;;;;;;;;30.44;27.15;98039.16;4995190;28;19922;-85
2023/05/06 10:25:26;;;;;;;;;;;;;;;30.54;28.34;98035.03;4995956;28;19972;-85
2023/05/06 10:27:52;;;;;;;;;;;;;;;29.08;33.00;98044.16;4997488;28;19925;-87
2023/05/06 10:30:18;;;;;;;;;;;;;;;27.67;32.14;98030.00;4992176;28;19926;-88
2023/05/06 10:32:44;;;;;;;;;;;;;;;28.29;31.28;98042.91;4991812;28;19921;-87
2023/05/06 10:35:29;;;;;;;;;;;;;;;28.43;30.91;98039.53;5000272;28;19921;-86
2023/05/06 10:37:56;;;;;;;;;;;;;;;29.04;31.17;98040.66;5004386;28;19969;-86
2023/05/06 10:40:22;;;;;;;;;;;;;;;28.55;31.79;98032.19;4979567;28;19926;-86
2023/05/06 10:42:50;;;;;;;;;;;;;;;27.12;35.98;98040.03;4996189;28;19988;-85
2023/05/06 10:45:16;;;;;;;;;;;;;;;27.42;35.17;98028.09;4997391;28;19930;-85
2023/05/06 10:47:51;;;;;;;;;;;;;;;27.48;36.22;98039.56;4997687;28;19933;-85
2023/05/06 10:50:23;;;;;;;;;;;;;;;27.09;37.71;98038.91;4987118;28;20020;-85
2023/05/06 10:52:50;;;;;;;;;;;;;;;26.27;38.09;98031.56;4979069;28;19950;-85
2023/05/06 10:55:27;;;;;;;;;;;;;;;26.00;39.96;98048.03;4988339;28;20400;-85
2023/05/06 10:57:57;;;;;;;;;;;;;;;27.23;35.68;98054.53;4988383;28;19969;-84
2023/05/06 11:00:23;;;;;;;;;;;;;;;27.28;35.87;98065.22;4989342;28;21588;-85
2023/05/06 11:02:53;;;;;;;;;;;;;;;26.51;40.40;98077.81;4986633;28;19984;-86
2023/05/06 11:05:19;;;;;;;;;;;;;;;26.59;38.63;98093.25;4991471;28;19922;-86
2023/05/06 11:07:48;;;;;;;;;;;;;;;28.06;35.51;98097.88;4967161;28;19930;-84
2023/05/06 11:10:14;;;;;;;;;;;;;;;28.79;34.42;98108.75;4993870;28;20401;-84
2023/05/06 11:12:54;;;;;;;;;;;;;;;27.88;36.63;98113.84;4986793;28;20389;-86
2023/05/06 11:15:25;;;;;;;;;;;;;;;26.49;39.00;98110.50;4977688;28;19922;-85
2023/05/06 11:17:52;;;;;;;;;;;;;;;26.55;38.02;98109.50;4989705;28;19925;-89
2023/05/06 11:20:19;;;;;;;;;;;;;;;25.94;40.33;98115.34;4995877;28;19921;-88
2023/05/06 11:22:45;;;;;;;;;;;;;;;26.84;38.33;98114.25;4986109;28;19933;-85
2023/05/06 11:25:11;;;;;;;;;;;;;;;27.19;37.07;98118.72;4972707;28;19945;-86
2023/05/06 11:27:37;;;;;;;;;;;;;;;27.08;36.88;98121.88;4982759;28;20365;-87
2023/05/06 11:30:04;;;;;;;;;;;;;;;26.24;39.56;98121.72;4979732;28;20349;-86
2023/05/06 11:32:31;;;;;;;;;;;;;;;25.46;42.38;98117.50;4987804;28;19922;-86
2023/05/06 11:34:58;;;;;;;;;;;;;;;25.83;38.80;98114.84;4982334;28;19929;-85
2023/05/06 11:37:28;;;;;;;;;;;;;;;26.99;37.34;98116.13;4966337;28;19964;-88
2023/05/06 11:39:54;;;;;;;;;;;;;;;26.65;37.47;98125.25;4986914;28;19933;-86
2023/05/06 11:42:24;;;;;;;;;;;;;;;27.61;35.68;98122.88;4999579;28;19932;-86
2023/05/06 11:44:52;;;;;;;;;;;;;;;28.35;34.75;98139.13;4994960;28;19929;-87
2023/05/06 11:47:19;;;;;;;;;;;;;;;29.07;34.13;98147.19;4998050;28;19967;-86
2023/05/06 11:49:55;;;;;;;;;;;;;;;29.39;33.42;98160.81;5009687;28;19945;-86
2023/05/06 11:52:21;;;;;;;;;;;;;;;29.60;33.18;98159.09;4992578;28;19921;-87
2023/05/06 11:54:50;;;;;;;;;;;;;;;29.68;32.69;98166.03;4996679;28;19918;-86
2023/05/06 11:57:16;;;;;;;;;;;;;;;29.54;32.43;98161.78;5003750;28;19925;-86
2023/05/06 11:59:42;;;;;;;;;;;;;;;29.24;33.08;98163.44;4990758;28;19930;-86
2023/05/06 12:02:09;;;;;;;;;;;;;;;29.15;33.61;98171.84;5007173;28;20275;-85
2023/05/06 12:04:36;;;;;;;;;;;;;;;29.00;33.66;98158.78;4992427;28;19922;-86
2023/05/06 12:07:03;;;;;;;;;;;;;;;28.87;33.45;98160.94;4994775;28;20038;-88
2023/05/06 12:09:29;;;;;;;;;;;;;;;28.89;34.59;98162.06;4991614;28;20029;-88
2023/05/06 12:11:56;;;;;;;;;;;;;;;29.44;32.97;98157.34;4997238;28;20340;-89
2023/05/06 12:14:22;;;;;;;;;;;;;;;29.39;34.04;98155.94;4998209;28;19977;-91
2023/05/06 12:16:48;;;;;;;;;;;;;;;29.57;33.28;98148.75;5005877;28;19983;-92
2023/05/06 12:19:14;;;;;;;;;;;;;;;29.74;31.40;98135.84;5004083;28;20008;-89
2023/05/06 12:21:40;;;;;;;;;;;;;;;29.16;33.06;98128.19;4996810;28;19933;-90
2023/05/06 12:24:06;;;;;;;;;;;;;;;28.65;33.17;98130.69;4992037;28;19917;-90
2023/05/06 12:26:43;;;;;;;;;;;;;;;28.61;33.48;98121.56;4989228;28;19961;-90
2023/05/06 12:29:10;;;;;;;;;;;;;;;28.30;34.93;98125.59;4999557;28;20370;-89
2023/05/06 12:31:36;;;;;;;;;;;;;;;28.65;34.93;98121.44;4993629;28;19922;-89
2023/05/06 12:34:03;;;;;;;;;;;;;;;29.07;34.70;98124.56;4993396;28;19930;-86
2023/05/06 12:36:29;;;;;;;;;;;;;;;29.52;34.09;98123.88;4987742;28;20263;-86
2023/05/06 12:38:56;;;;;;;;;;;;;;;29.78;32.71;98119.53;4984493;28;20286;-85
2023/05/06 12:41:23;;;;;;;;;;;;;;;29.86;33.54;98127.22;4986069;28;19926;-85
2023/05/06 12:43:51;;;;;;;;;;;;;;;30.10;33.30;98127.38;4990159;28;20277;-86
2023/05/06 12:46:17;;;;;;;;;;;;;;;30.28;33.52;98126.53;4984727;28;20007;-85